createdAt,value
2023-03-02T00:02:25.241Z,8.60
2023-03-02T00:05:30.536Z,7.90
2023-03-02T00:08:36.463Z,7.90
2023-03-02T00:11:41.119Z,7.18
2023-03-02T00:14:45.407Z,8.95
2023-03-02T00:17:49.752Z,8.80
2023-03-02T00:20:54.276Z,7.18
2023-03-02T00:23:58.879Z,8.20
2023-03-02T00:27:03.432Z,7.63
2023-03-02T00:30:09.251Z,7.53
2023-03-02T00:33:13.607Z,8.48
2023-03-02T00:36:19.070Z,7.13
2023-03-02T00:39:23.450Z,8.25
2023-03-02T00:42:28.144Z,8.13
2023-03-02T00:45:32.694Z,8.82
2023-03-02T00:48:37.184Z,5.57
2023-03-02T00:51:41.484Z,7.22
2023-03-02T00:54:45.819Z,5.20
2023-03-02T00:57:57.121Z,7.67
2023-03-02T01:01:11.987Z,7.78
2023-03-02T01:04:21.201Z,7.32
2023-03-02T01:07:28.222Z,8.25
2023-03-02T01:10:33.609Z,8.10
2023-03-02T01:13:38.217Z,8.48
2023-03-02T01:19:48.391Z,7.47
2023-03-02T01:22:52.988Z,7.70
2023-03-02T01:25:57.490Z,6.82
2023-03-02T01:29:01.904Z,7.50
2023-03-02T01:32:06.257Z,8.07
2023-03-02T01:35:10.943Z,9.13
2023-03-02T01:38:15.388Z,9.23
2023-03-02T01:41:20.540Z,8.75
2023-03-02T01:44:46.310Z,8.00
2023-03-02T01:47:50.709Z,8.88
2023-03-02T01:50:57.618Z,8.07
2023-03-02T01:54:10.040Z,8.52
2023-03-02T01:57:14.513Z,7.88
2023-03-02T02:00:23.680Z,9.20
2023-03-02T02:03:31.129Z,10.43
2023-03-02T02:06:40.701Z,9.68
2023-03-02T02:09:49.392Z,9.45
2023-03-02T02:12:54.264Z,9.07
2023-03-02T02:15:58.834Z,8.50
2023-03-02T02:19:11.129Z,8.88
2023-03-02T02:22:26.946Z,10.40
2023-03-02T02:25:52.953Z,10.75
2023-03-02T02:29:12.265Z,10.25
2023-03-02T02:32:26.522Z,9.63
2023-03-02T02:35:34.840Z,8.95
2023-03-02T02:38:41.090Z,8.55
2023-03-02T02:41:49.276Z,8.80
2023-03-02T02:44:58.272Z,8.70
2023-03-02T02:48:03.096Z,8.57
2023-03-02T02:51:10.675Z,8.70
2023-03-02T02:54:18.619Z,8.23
2023-03-02T02:57:27.272Z,8.88
2023-03-02T03:00:31.855Z,10.15
2023-03-02T03:03:39.174Z,8.90
2023-03-02T03:07:06.576Z,8.57
2023-03-02T03:10:28.439Z,8.73
2023-03-02T03:13:33.670Z,9.25
2023-03-02T03:16:41.357Z,8.95
2023-03-02T03:19:46.883Z,8.88
2023-03-02T03:25:58.457Z,9.02
2023-03-02T03:29:04.020Z,9.55
2023-03-02T03:32:08.859Z,9.13
2023-03-02T03:38:18.755Z,9.23
2023-03-02T03:41:25.096Z,7.80
2023-03-02T03:47:34.913Z,7.82
2023-03-02T03:50:41.173Z,8.73
2023-03-02T03:53:45.810Z,9.57
2023-03-02T03:56:51.036Z,9.02
2023-03-02T04:03:01.129Z,9.32
2023-03-02T04:06:08.086Z,9.13
2023-03-02T04:09:15.383Z,8.15
2023-03-02T04:12:20.104Z,9.02
2023-03-02T04:15:29.349Z,10.23
2023-03-02T04:18:36.119Z,8.60
2023-03-02T04:21:45.181Z,8.97
2023-03-02T04:24:50.254Z,8.88
2023-03-02T04:27:55.273Z,9.85
2023-03-02T04:31:02.701Z,9.77
2023-03-02T04:34:08.406Z,9.82
2023-03-02T04:37:15.891Z,9.55
2023-03-02T04:40:21.000Z,9.13
2023-03-02T04:43:28.454Z,7.53
2023-03-02T04:46:34.633Z,7.75
2023-03-02T04:49:39.504Z,8.95
2023-03-02T04:52:44.240Z,6.07
2023-03-02T04:55:49.179Z,9.40
2023-03-02T04:58:53.877Z,8.20
2023-03-02T05:02:00.293Z,6.40
2023-03-02T05:05:05.008Z,9.30
2023-03-02T05:08:09.507Z,7.10
2023-03-02T05:11:24.275Z,8.33
2023-03-02T05:14:29.208Z,8.95
2023-03-02T05:17:33.579Z,7.60
2023-03-02T05:20:39.202Z,8.13
2023-03-02T05:23:44.386Z,8.27
2023-03-02T05:26:48.950Z,9.50
2023-03-02T05:29:53.352Z,9.00
2023-03-02T05:32:58.144Z,8.27
2023-03-02T05:36:02.393Z,8.05
2023-03-02T05:39:07.125Z,9.00
2023-03-02T05:42:11.882Z,8.23
2023-03-02T05:45:26.275Z,7.00
2023-03-02T05:48:31.481Z,8.30
2023-03-02T05:54:41.089Z,8.75
2023-03-02T05:57:46.163Z,6.85
2023-03-02T06:00:50.494Z,9.40
2023-03-02T06:03:55.525Z,6.35
2023-03-02T06:06:59.804Z,9.27
2023-03-02T06:10:06.186Z,6.97
2023-03-02T06:13:11.045Z,9.45
2023-03-02T06:16:15.297Z,9.37
2023-03-02T06:19:19.692Z,9.00
2023-03-02T06:22:24.137Z,8.18
2023-03-02T06:25:29.499Z,8.93
2023-03-02T06:28:46.295Z,10.32
2023-03-02T06:31:56.050Z,10.35
2023-03-02T06:35:01.520Z,12.57
2023-03-02T06:38:06.052Z,12.40
2023-03-02T06:41:10.568Z,13.27
2023-03-02T06:44:16.350Z,14.20
2023-03-02T06:47:22.781Z,12.95
2023-03-02T06:50:28.373Z,13.80
2023-03-02T06:53:32.856Z,14.40
2023-03-02T06:56:39.029Z,15.00
2023-03-02T06:59:44.453Z,15.02
2023-03-02T07:02:50.050Z,13.02
2023-03-02T07:08:58.648Z,12.77
2023-03-02T07:12:03.359Z,12.27
2023-03-02T07:15:11.272Z,11.82
2023-03-02T07:18:16.086Z,13.15
2023-03-02T07:21:20.948Z,13.82
2023-03-02T07:24:25.192Z,12.27
2023-03-02T07:27:30.114Z,15.37
2023-03-02T07:30:34.557Z,13.75
2023-03-02T07:33:39.722Z,13.23
2023-03-02T07:36:44.151Z,13.38
2023-03-02T07:39:49.372Z,9.30
2023-03-02T07:45:59.756Z,9.73
2023-03-02T07:49:04.478Z,9.13
2023-03-02T07:52:09.546Z,9.23
2023-03-02T07:55:14.168Z,10.75
2023-03-02T07:58:18.663Z,9.83
2023-03-02T08:01:23.139Z,8.02
2023-03-02T08:04:27.781Z,7.50
2023-03-02T08:07:32.273Z,4.25
2023-03-02T08:10:37.136Z,4.73
2023-03-02T08:13:42.617Z,3.45
2023-03-02T08:16:47.250Z,2.42
2023-03-02T08:19:51.542Z,2.50
2023-03-02T08:22:56.020Z,1.92
2023-03-02T08:26:00.553Z,2.28
2023-03-02T08:29:06.080Z,2.20
2023-03-02T08:32:10.822Z,2.20
2023-03-02T08:35:15.208Z,2.33
2023-03-02T08:38:19.125Z,2.17
2023-03-02T08:41:24.432Z,1.70
2023-03-02T08:44:28.973Z,3.28
2023-03-02T08:47:33.314Z,2.08
2023-03-02T08:50:37.472Z,2.10
2023-03-02T08:53:44.254Z,1.80
2023-03-02T08:56:48.861Z,2.30
2023-03-02T08:59:53.489Z,1.50
2023-03-02T09:02:58.078Z,1.90
2023-03-02T09:06:02.646Z,1.90
2023-03-02T09:09:08.017Z,1.42
2023-03-02T09:12:12.174Z,1.30
2023-03-02T09:15:16.735Z,1.30
2023-03-02T09:18:21.368Z,1.40
2023-03-02T09:21:26.353Z,0.93
2023-03-02T09:27:34.866Z,0.70
2023-03-02T09:30:39.388Z,0.68
2023-03-02T09:33:43.585Z,0.80
2023-03-02T09:36:48.028Z,0.90
2023-03-02T09:39:52.399Z,0.15
2023-03-02T09:43:28.405Z,0.43
2023-03-02T09:46:50.849Z,0.60
2023-03-02T09:50:05.811Z,0.50
2023-03-02T09:53:39.232Z,0.40
2023-03-02T09:57:04.702Z,0.60
2023-03-02T10:00:20.074Z,1.38
2023-03-02T10:03:33.762Z,0.43
2023-03-02T10:06:38.168Z,0.50
2023-03-02T10:09:43.031Z,0.32
2023-03-02T10:12:53.572Z,0.50
2023-03-02T10:16:06.619Z,0.40
2023-03-02T10:19:19.876Z,1.48
2023-03-02T10:22:36.663Z,0.52
2023-03-02T10:25:48.721Z,0.50
2023-03-02T10:29:28.413Z,0.50
2023-03-02T10:32:38.165Z,1.88
2023-03-02T10:35:50.791Z,1.00
2023-03-02T10:38:56.668Z,1.15
2023-03-02T10:42:06.638Z,1.98
2023-03-02T10:45:26.684Z,1.42
2023-03-02T10:48:31.120Z,1.90
2023-03-02T10:51:35.564Z,1.85
2023-03-02T10:54:40.125Z,1.90
2023-03-02T10:57:46.194Z,2.40
2023-03-02T11:01:01.901Z,1.85
2023-03-02T11:04:15.447Z,1.83
2023-03-02T11:07:22.853Z,2.33
2023-03-02T11:10:30.077Z,2.30
2023-03-02T11:13:36.977Z,2.03
2023-03-02T11:16:41.295Z,2.00
2023-03-02T11:19:45.966Z,3.05
2023-03-02T11:22:59.172Z,2.15
2023-03-02T11:26:15.532Z,2.25
2023-03-02T11:29:42.163Z,2.83
2023-03-02T11:32:59.917Z,3.58
2023-03-02T11:36:29.784Z,2.25
2023-03-02T11:40:08.964Z,2.92
2023-03-02T11:43:13.655Z,3.55
2023-03-02T11:49:39.615Z,2.55
2023-03-02T11:52:51.648Z,3.40
2023-03-02T11:55:56.257Z,3.72
2023-03-02T11:59:27.576Z,2.25
2023-03-02T12:02:33.070Z,3.22
2023-03-02T12:05:39.822Z,2.67
2023-03-02T12:08:46.036Z,2.47
2023-03-02T12:12:22.364Z,2.55
2023-03-02T12:15:39.967Z,2.85
2023-03-02T12:18:47.854Z,3.28
2023-03-02T12:22:05.637Z,2.67
2023-03-02T12:25:19.509Z,2.67
2023-03-02T12:28:34.778Z,2.75
2023-03-02T12:31:47.560Z,3.20
2023-03-02T12:34:59.144Z,1.80
2023-03-02T12:38:25.859Z,1.63
2023-03-02T12:41:51.535Z,2.40
2023-03-02T12:48:45.528Z,1.58
2023-03-02T12:51:50.218Z,1.17
2023-03-02T12:55:24.937Z,1.08
2023-03-02T12:58:30.011Z,0.73
2023-03-02T13:01:34.477Z,0.80
2023-03-02T13:04:38.820Z,1.10
2023-03-02T13:07:53.317Z,1.17
2023-03-02T13:11:02.008Z,1.13
2023-03-02T13:14:26.263Z,1.10
2023-03-02T13:17:32.469Z,2.13
2023-03-02T13:20:37.959Z,1.65
2023-03-02T13:23:48.053Z,1.10
2023-03-02T13:27:15.872Z,1.17
2023-03-02T13:30:29.814Z,0.80
2023-03-02T13:33:43.490Z,1.10
2023-03-02T13:36:47.665Z,1.13
2023-03-02T13:40:00.993Z,1.10
2023-03-02T13:43:19.059Z,0.93
2023-03-02T13:46:33.725Z,1.50
2023-03-02T13:52:42.626Z,1.00
2023-03-02T13:55:47.641Z,1.10
2023-03-02T14:01:56.100Z,1.65
2023-03-02T14:05:00.658Z,1.38
2023-03-02T14:08:06.890Z,1.85
2023-03-02T14:11:13.654Z,1.40
2023-03-02T14:14:24.284Z,1.20
2023-03-02T14:17:28.936Z,1.45
2023-03-02T14:20:33.272Z,1.50
2023-03-02T14:23:40.063Z,1.45
2023-03-02T14:26:47.867Z,1.67
2023-03-02T14:29:52.322Z,1.38
2023-03-02T14:32:56.665Z,1.30
2023-03-02T14:36:01.157Z,1.52
2023-03-02T14:39:18.823Z,0.90
2023-03-02T14:42:23.857Z,1.30
2023-03-02T14:45:30.489Z,1.20
2023-03-02T14:48:35.116Z,1.73
2023-03-02T14:51:41.850Z,0.80
2023-03-02T14:54:55.255Z,1.30
2023-03-02T14:58:03.723Z,2.10
2023-03-02T15:01:10.247Z,1.10
2023-03-02T15:04:15.830Z,1.42
2023-03-02T15:07:21.521Z,1.30
2023-03-02T15:10:26.003Z,1.23
2023-03-02T15:13:30.372Z,1.42
2023-03-02T15:16:34.718Z,1.63
2023-03-02T15:19:39.030Z,1.10
2023-03-02T15:22:43.678Z,1.40
2023-03-02T15:25:47.874Z,1.50
2023-03-02T15:28:52.522Z,1.48
2023-03-02T15:31:56.983Z,1.50
2023-03-02T15:35:01.393Z,1.75
2023-03-02T15:38:05.470Z,2.00
2023-03-02T15:41:15.348Z,2.33
2023-03-02T15:44:22.723Z,1.63
2023-03-02T15:47:27.460Z,2.13
2023-03-02T15:50:31.995Z,2.40
2023-03-02T15:53:38.744Z,1.50
2023-03-02T15:56:45.168Z,1.60
2023-03-02T15:59:49.628Z,1.50
2023-03-02T16:02:54.064Z,1.08
2023-03-02T16:06:01.537Z,1.40
2023-03-02T16:09:06.332Z,1.45
2023-03-02T16:12:10.706Z,1.25
2023-03-02T16:15:15.244Z,1.08
2023-03-02T16:18:19.786Z,0.63
2023-03-02T16:21:25.881Z,1.33
2023-03-02T16:24:30.129Z,1.08
2023-03-02T16:27:34.433Z,0.80
2023-03-02T16:30:39.376Z,0.80
2023-03-02T16:36:49.384Z,0.30
2023-03-02T16:42:58.041Z,0.55
2023-03-02T16:46:02.980Z,0.30
2023-03-02T16:49:07.638Z,0.77
2023-03-02T16:52:12.289Z,0.20
2023-03-02T16:55:19.236Z,0.30
2023-03-02T16:58:24.310Z,0.35
2023-03-02T17:01:29.269Z,0.30
2023-03-02T17:04:36.965Z,0.70
2023-03-02T17:07:41.607Z,0.57
2023-03-02T17:10:46.379Z,1.13
2023-03-02T17:13:50.865Z,0.25
2023-03-02T17:16:56.869Z,0.45
2023-03-02T17:20:01.241Z,0.25
2023-03-02T17:23:05.999Z,0.32
2023-03-02T17:26:10.904Z,0.30
2023-03-02T17:29:16.051Z,0.25
2023-03-02T17:32:23.492Z,0.20
2023-03-02T17:35:27.908Z,0.30
2023-03-02T17:38:32.892Z,0.25
2023-03-02T17:41:37.882Z,0.20
2023-03-02T17:44:43.698Z,0.30
2023-03-02T17:47:50.055Z,0.10
2023-03-02T17:50:54.547Z,0.40
2023-03-02T17:53:59.225Z,0.40
2023-03-02T17:57:03.816Z,0.40
2023-03-02T18:00:13.305Z,0.65
2023-03-02T18:03:17.612Z,0.50
2023-03-02T18:06:22.292Z,0.55
2023-03-02T18:09:26.281Z,0.82
2023-03-02T18:12:30.817Z,0.60
2023-03-02T18:15:35.510Z,0.80
2023-03-02T18:18:39.790Z,0.98
2023-03-02T18:21:45.323Z,0.93
2023-03-02T18:24:51.147Z,1.42
2023-03-02T18:27:55.442Z,1.45
2023-03-02T18:31:00.252Z,1.73
2023-03-02T18:37:09.316Z,1.08
2023-03-02T18:43:18.930Z,1.20
2023-03-02T18:46:26.484Z,1.57
2023-03-02T18:49:31.174Z,1.10
2023-03-02T18:52:35.639Z,1.00
2023-03-02T18:55:40.449Z,2.00
2023-03-02T18:58:45.739Z,1.20
2023-03-02T19:04:55.130Z,1.25
2023-03-02T19:08:00.243Z,1.40
2023-03-02T19:11:05.959Z,0.98
2023-03-02T19:14:11.007Z,0.98
2023-03-02T19:17:15.568Z,0.98
2023-03-02T19:20:24.768Z,1.25
2023-03-02T19:23:29.492Z,1.20
2023-03-02T19:26:34.353Z,0.80
2023-03-02T19:29:39.559Z,1.77
2023-03-02T19:32:44.092Z,0.90
2023-03-02T19:35:48.296Z,1.20
2023-03-02T19:38:52.792Z,1.05
2023-03-02T19:41:57.095Z,1.17
2023-03-02T19:45:03.220Z,1.23
2023-03-02T19:48:08.961Z,1.00
2023-03-02T19:51:15.002Z,0.93
2023-03-02T19:54:19.970Z,0.85
2023-03-02T19:57:25.298Z,1.30
2023-03-02T20:00:32.580Z,0.90
2023-03-02T20:03:37.007Z,1.05
2023-03-02T20:06:41.523Z,0.75
2023-03-02T20:09:46.548Z,1.40
2023-03-02T20:15:55.925Z,1.20
2023-03-02T20:19:01.952Z,0.80
2023-03-02T20:22:06.843Z,1.30
2023-03-02T20:25:14.441Z,1.42
2023-03-02T20:28:22.642Z,1.15
2023-03-02T20:31:27.205Z,1.40
2023-03-02T20:34:32.189Z,2.15
2023-03-02T20:37:37.756Z,1.23
2023-03-02T20:40:42.904Z,1.30
2023-03-02T20:46:56.321Z,1.10
2023-03-02T20:50:01.366Z,1.48
2023-03-02T20:53:06.774Z,1.50
2023-03-02T21:02:21.604Z,1.27
2023-03-02T21:05:27.474Z,1.63
2023-03-02T21:08:34.183Z,1.48
2023-03-02T21:11:38.534Z,1.85
2023-03-02T21:14:43.189Z,1.40
2023-03-02T21:17:47.802Z,1.08
2023-03-02T21:20:52.085Z,1.77
2023-03-02T21:23:56.732Z,1.98
2023-03-02T21:27:01.345Z,1.20
2023-03-02T21:30:08.703Z,1.65
2023-03-02T21:33:13.339Z,1.15
2023-03-02T21:36:22.510Z,1.53
2023-03-02T21:39:27.345Z,1.38
2023-03-02T21:42:31.627Z,1.30
2023-03-02T21:45:36.762Z,1.17
2023-03-02T21:51:48.885Z,0.85
2023-03-02T21:54:54.518Z,1.25
2023-03-02T21:57:58.956Z,2.15
2023-03-02T22:01:03.529Z,2.33
2023-03-02T22:04:07.804Z,1.95
2023-03-02T22:07:12.144Z,2.05
2023-03-02T22:10:43.887Z,2.17
2023-03-02T22:13:53.890Z,1.63
2023-03-02T22:16:58.646Z,1.58
2023-03-02T22:20:12.324Z,1.48
2023-03-02T22:23:20.962Z,1.65
2023-03-02T22:26:25.282Z,1.40
2023-03-02T22:29:40.264Z,1.38
2023-03-02T22:32:44.720Z,1.60
2023-03-02T22:35:51.013Z,1.17
2023-03-02T22:39:00.957Z,1.70
2023-03-02T22:42:20.335Z,2.15
2023-03-02T22:45:24.947Z,2.35
2023-03-02T22:48:29.817Z,2.17
2023-03-02T22:51:34.454Z,2.65
2023-03-02T22:54:39.076Z,1.70
2023-03-02T22:57:43.591Z,1.45
2023-03-02T23:00:48.381Z,2.72
2023-03-02T23:04:22.640Z,2.45
2023-03-02T23:07:27.234Z,2.20
2023-03-02T23:10:32.070Z,1.95
2023-03-02T23:13:40.703Z,2.22
2023-03-02T23:16:48.651Z,1.40
2023-03-02T23:19:53.076Z,2.58
2023-03-02T23:22:58.034Z,2.30
2023-03-02T23:26:02.565Z,2.05
2023-03-02T23:29:07.429Z,2.23
2023-03-02T23:32:12.311Z,2.00
2023-03-02T23:35:17.197Z,2.78
2023-03-02T23:38:22.020Z,3.15
2023-03-02T23:41:26.918Z,2.75
2023-03-02T23:47:35.586Z,2.78
2023-03-02T23:50:39.904Z,2.50
2023-03-02T23:53:44.777Z,3.40
2023-03-02T23:56:49.633Z,3.53
2023-03-02T23:59:53.879Z,2.42
